Time;durP1;ratioP1;P1;durP2;ratioP2;P2;SDS_P1;SDS_P2;PMS_P1;PMS_P2;Temp;Humidity;BMP_temperature;BMP_pressure;BME280_temperature;BME280_humidity;BME280_pressure;Samples;Min_cycle;Max_cycle;Signal;HPM_P1;HPM_P2
2023/05/14 00:02:26;;;;;;;9.98;8.98;;;14.30;94.10;;;;;;5052249;28;20223;-76
2023/05/14 00:04:54;;;;;;;10.88;8.10;;;14.10;94.20;;;;;;5052116;28;20265;-74
2023/05/14 00:07:21;;;;;;;7.03;6.43;;;14.10;94.70;;;;;;5052189;28;20567;-76
2023/05/14 00:09:48;;;;;;;6.95;6.30;;;14.10;94.90;;;;;;5066855;28;20295;-75
2023/05/14 00:12:15;;;;;;;9.15;7.75;;;14.10;94.80;;;;;;5038418;28;20300;-77
2023/05/14 00:14:42;;;;;;;10.35;7.40;;;14.10;94.80;;;;;;5048225;28;20224;-77
2023/05/14 00:17:10;;;;;;;10.35;8.75;;;14.10;94.90;;;;;;5054668;28;20267;-76
2023/05/14 00:19:40;;;;;;;12.82;7.40;;;14.00;95.40;;;;;;5061927;28;20202;-76
2023/05/14 00:22:07;;;;;;;8.90;6.60;;;14.10;95.60;;;;;;5065051;28;20223;-76
2023/05/14 00:24:34;;;;;;;9.30;7.40;;;14.00;95.90;;;;;;5050968;28;20689;-76
2023/05/14 00:27:01;;;;;;;8.57;6.80;;;13.90;96.10;;;;;;5039218;28;20736;-76
2023/05/14 00:29:28;;;;;;;9.10;7.72;;;13.90;96.40;;;;;;5053258;28;20199;-76
2023/05/14 00:31:55;;;;;;;7.55;6.85;;;13.90;96.50;;;;;;5025189;28;20231;-75
2023/05/14 00:34:25;;;;;;;8.52;7.10;;;13.90;96.50;;;;;;5055310;28;20196;-75
2023/05/14 00:36:52;;;;;;;10.13;7.07;;;13.90;96.50;;;;;;5053534;28;20689;-78
2023/05/14 00:39:19;;;;;;;10.13;8.65;;;13.90;97.00;;;;;;5055697;28;20553;-76
2023/05/14 00:41:46;;;;;;;8.60;7.80;;;13.90;97.20;;;;;;5053894;28;20254;-77
2023/05/14 00:44:14;;;;;;;9.00;7.00;;;13.80;97.40;;;;;;5055673;28;20203;-75
2023/05/14 00:46:42;;;;;;;13.57;8.85;;;13.80;97.40;;;;;;5060180;28;20581;-75
2023/05/14 00:49:09;;;;;;;8.80;7.90;;;13.80;97.70;;;;;;5056145;28;20704;-77
2023/05/14 00:51:38;;;;;;;9.60;7.85;;;13.80;97.70;;;;;;5050993;28;20317;-77
2023/05/14 00:54:05;;;;;;;9.77;7.22;;;13.80;97.70;;;;;;5047100;28;20229;-76
2023/05/14 00:56:32;;;;;;;10.80;7.50;;;13.70;97.80;;;;;;5047846;28;20215;-77
2023/05/14 00:58:59;;;;;;;10.10;7.78;;;13.70;97.90;;;;;;5054463;28;20206;-76
2023/05/14 01:01:27;;;;;;;8.77;7.97;;;13.60;98.00;;;;;;5050000;28;20299;-76
2023/05/14 01:03:56;;;;;;;8.77;8.07;;;13.60;98.50;;;;;;5054529;28;20261;-77
2023/05/14 01:06:27;;;;;;;10.05;8.30;;;13.40;99.10;;;;;;5055727;28;20606;-75
2023/05/14 01:09:05;;;;;;;11.43;7.43;;;13.50;99.50;;;;;;5052856;28;20764;-76
2023/05/14 01:11:39;;;;;;;12.65;8.73;;;13.50;99.70;;;;;;5045653;28;21838;-75
2023/05/14 01:14:14;;;;;;;9.00;8.10;;;13.40;99.90;;;;;;5048005;28;20283;-76
2023/05/14 01:16:42;;;;;;;9.98;9.13;;;13.40;99.90;;;;;;5057024;28;20282;-76
2023/05/14 01:19:21;;;;;;;11.18;9.38;;;13.40;99.90;;;;;;5055661;28;20267;-75
2023/05/14 01:21:49;;;;;;;8.43;6.93;;;13.40;99.90;;;;;;5054069;28;20305;-79
2023/05/14 01:24:16;;;;;;;11.55;10.20;;;13.40;99.90;;;;;;5043234;28;20206;-76
2023/05/14 01:26:43;;;;;;;10.82;9.77;;;13.40;99.90;;;;;;5053928;28;20747;-76
2023/05/14 01:29:22;;;;;;;8.60;7.70;;;13.40;99.90;;;;;;5054875;28;20212;-77
2023/05/14 01:31:51;;;;;;;9.65;8.13;;;13.40;99.90;;;;;;5056936;28;20244;-76
2023/05/14 01:34:22;;;;;;;9.23;8.43;;;13.30;99.90;;;;;;5054176;28;20748;-76
2023/05/14 01:36:52;;;;;;;10.10;8.45;;;13.30;99.90;;;;;;5057980;28;20294;-77
2023/05/14 01:39:19;;;;;;;7.47;6.70;;;13.30;99.90;;;;;;5062530;28;20199;-75
2023/05/14 01:41:47;;;;;;;8.88;7.97;;;13.20;99.90;;;;;;5051169;28;20608;-76
2023/05/14 01:44:14;;;;;;;9.68;8.68;;;13.20;99.90;;;;;;5043169;28;20282;-77
2023/05/14 01:46:41;;;;;;;9.70;8.75;;;13.10;99.90;;;;;;5053952;28;20206;-77
2023/05/14 01:49:08;;;;;;;9.50;8.70;;;13.10;99.90;;;;;;5054956;28;20301;-78
2023/05/14 01:51:36;;;;;;;11.05;9.73;;;13.10;99.90;;;;;;5052985;28;20309;-77
2023/05/14 01:54:04;;;;;;;9.13;8.23;;;13.00;99.90;;;;;;5059962;28;20282;-77
2023/05/14 01:56:31;;;;;;;10.07;8.68;;;13.10;99.90;;;;;;5066869;28;20309;-77
2023/05/14 01:58:58;;;;;;;10.32;8.73;;;13.10;99.90;;;;;;5056352;28;20278;-77
2023/05/14 02:01:25;;;;;;;13.57;9.93;;;13.10;99.90;;;;;;5057126;28;20206;-75
2023/05/14 02:03:52;;;;;;;14.73;11.40;;;13.10;99.90;;;;;;5059603;28;20283;-75
2023/05/14 02:06:20;;;;;;;10.57;8.00;;;13.10;99.90;;;;;;5055020;28;20204;-77
2023/05/14 02:08:47;;;;;;;10.05;9.13;;;13.10;99.90;;;;;;5054739;28;20652;-76
2023/05/14 02:11:15;;;;;;;10.93;9.15;;;13.10;99.90;;;;;;5058128;28;20234;-76
2023/05/14 02:13:42;;;;;;;15.63;10.40;;;13.00;99.90;;;;;;5071217;28;20219;-76
2023/05/14 02:16:16;;;;;;;10.07;9.05;;;12.90;99.90;;;;;;5073581;28;20227;-76
2023/05/14 02:18:43;;;;;;;10.30;9.30;;;12.80;99.90;;;;;;5049596;28;20551;-75
2023/05/14 02:21:10;;;;;;;14.07;9.27;;;12.80;99.90;;;;;;5052471;28;20291;-76
2023/05/14 02:23:37;;;;;;;9.57;8.68;;;12.80;99.90;;;;;;5057284;28;20289;-76
2023/05/14 02:26:03;;;;;;;8.43;7.65;;;12.70;99.90;;;;;;5055126;28;20221;-77
2023/05/14 02:28:32;;;;;;;10.50;9.35;;;12.70;99.90;;;;;;5053624;28;20332;-76
2023/05/14 02:31:00;;;;;;;13.38;9.43;;;12.70;99.90;;;;;;5054935;28;20261;-77
2023/05/14 02:33:26;;;;;;;9.90;8.55;;;12.70;99.90;;;;;;5049233;28;20745;-76
2023/05/14 02:35:54;;;;;;;10.65;8.82;;;12.70;99.90;;;;;;5056593;28;20271;-77
2023/05/14 02:38:21;;;;;;;10.05;8.98;;;12.60;99.90;;;;;;5054577;28;20592;-75
2023/05/14 02:40:48;;;;;;;12.10;10.23;;;12.60;99.90;;;;;;5054055;28;20214;-76
2023/05/14 02:43:15;;;;;;;9.73;8.85;;;12.60;99.90;;;;;;5046732;28;20665;-76
2023/05/14 02:45:43;;;;;;;10.85;9.75;;;12.50;99.90;;;;;;5053571;28;20210;-76
2023/05/14 02:48:10;;;;;;;10.77;9.75;;;12.60;99.90;;;;;;5053324;28;20301;-76
2023/05/14 02:50:36;;;;;;;10.45;9.45;;;12.60;99.90;;;;;;5051862;28;20212;-76
2023/05/14 02:53:03;;;;;;;11.38;9.80;;;12.60;99.90;;;;;;5050837;28;20234;-76
2023/05/14 02:55:30;;;;;;;10.55;9.25;;;12.50;99.90;;;;;;5052874;28;20299;-76
2023/05/14 02:57:57;;;;;;;13.05;9.98;;;12.50;99.90;;;;;;5053730;28;20191;-75
2023/05/14 03:00:25;;;;;;;11.10;10.07;;;12.40;99.90;;;;;;5047655;28;20204;-76
2023/05/14 03:02:53;;;;;;;9.52;8.73;;;12.50;99.90;;;;;;5052492;28;20646;-75
2023/05/14 03:05:20;;;;;;;11.15;9.93;;;12.50;99.90;;;;;;5052660;28;20245;-75
2023/05/14 03:07:47;;;;;;;10.00;9.00;;;12.40;99.90;;;;;;5052782;28;20209;-76
2023/05/14 03:10:14;;;;;;;10.00;9.00;;;12.50;99.90;;;;;;5051866;28;20687;-76
2023/05/14 03:12:42;;;;;;;10.13;9.13;;;12.40;99.90;;;;;;5047626;28;20226;-76
2023/05/14 03:15:09;;;;;;;10.00;8.98;;;12.40;99.90;;;;;;5053137;28;20253;-77
2023/05/14 03:17:36;;;;;;;12.52;8.80;;;12.40;99.90;;;;;;5055925;28;20233;-76
2023/05/14 03:20:06;;;;;;;9.98;9.05;;;12.50;99.90;;;;;;5055595;28;20263;-76
2023/05/14 03:22:34;;;;;;;15.38;10.13;;;12.50;99.90;;;;;;5053428;28;20310;-75
2023/05/14 03:25:01;;;;;;;11.98;9.63;;;12.50;99.90;;;;;;5052939;28;20286;-76
2023/05/14 03:27:28;;;;;;;11.30;10.10;;;12.50;99.90;;;;;;5052549;28;20198;-77
2023/05/14 03:29:55;;;;;;;10.60;9.60;;;12.50;99.90;;;;;;5050608;28;20315;-74
2023/05/14 03:32:21;;;;;;;9.63;8.02;;;12.50;99.90;;;;;;5055760;28;20328;-77
2023/05/14 03:34:48;;;;;;;10.55;9.65;;;12.50;99.90;;;;;;5053752;28;20211;-76
2023/05/14 03:37:17;;;;;;;9.43;8.52;;;12.50;99.90;;;;;;5051924;28;20385;-76
2023/05/14 03:39:44;;;;;;;13.85;8.93;;;12.50;99.90;;;;;;5051748;28;20207;-76
2023/05/14 03:42:11;;;;;;;9.30;8.50;;;12.60;99.90;;;;;;5051903;28;20693;-77
2023/05/14 03:44:37;;;;;;;9.45;8.55;;;12.60;99.90;;;;;;5052315;28;20712;-76
2023/05/14 03:47:05;;;;;;;9.60;8.60;;;12.70;99.90;;;;;;5055928;28;20217;-76
2023/05/14 03:49:32;;;;;;;9.88;8.93;;;12.70;99.90;;;;;;5050205;28;20317;-74
2023/05/14 03:51:59;;;;;;;9.35;8.52;;;12.70;99.90;;;;;;5049983;28;20306;-76
2023/05/14 03:54:27;;;;;;;8.98;8.18;;;12.80;99.90;;;;;;5054456;28;20210;-75
2023/05/14 03:56:54;;;;;;;9.20;8.25;;;13.00;99.90;;;;;;5059160;28;20297;-76
2023/05/14 03:59:22;;;;;;;9.23;8.32;;;13.00;99.90;;;;;;5054134;28;20281;-76
2023/05/14 04:01:48;;;;;;;10.07;9.02;;;13.10;99.90;;;;;;5055493;28;20242;-75
2023/05/14 04:04:15;;;;;;;9.13;8.27;;;13.20;99.90;;;;;;5061003;28;20199;-75
2023/05/14 04:06:42;;;;;;;8.82;8.07;;;13.30;99.90;;;;;;5076435;28;20222;-77
2023/05/14 04:09:10;;;;;;;8.35;7.43;;;13.40;99.90;;;;;;5055154;28;20223;-77
2023/05/14 04:11:39;;;;;;;8.90;8.05;;;13.50;99.90;;;;;;5045847;28;20242;-75
2023/05/14 04:14:06;;;;;;;9.30;8.43;;;13.60;99.90;;;;;;5056399;28;20299;-76
2023/05/14 04:16:33;;;;;;;11.95;8.13;;;13.80;99.90;;;;;;5059172;28;20215;-75
2023/05/14 04:19:02;;;;;;;8.43;7.03;;;14.00;99.90;;;;;;5054409;28;20271;-76
2023/05/14 04:21:30;;;;;;;9.48;7.97;;;14.10;99.90;;;;;;5065096;28;20223;-76
2023/05/14 04:23:57;;;;;;;7.88;7.18;;;14.20;99.90;;;;;;5057639;28;20283;-76
2023/05/14 04:26:24;;;;;;;10.77;8.25;;;14.30;99.90;;;;;;5056253;28;20279;-76
2023/05/14 04:28:53;;;;;;;7.22;6.63;;;14.50;99.90;;;;;;5050005;28;20250;-75
2023/05/14 04:31:20;;;;;;;6.88;6.18;;;14.70;99.70;;;;;;5055455;28;20246;-75
2023/05/14 04:33:47;;;;;;;8.02;6.80;;;15.00;99.30;;;;;;5058566;28;20239;-76
2023/05/14 04:36:14;;;;;;;7.83;7.10;;;15.60;98.80;;;;;;5059198;28;20276;-76
2023/05/14 04:38:41;;;;;;;6.67;6.07;;;16.10;97.20;;;;;;5067401;28;20449;-75
2023/05/14 04:41:09;;;;;;;8.93;7.07;;;16.70;96.00;;;;;;5054728;28;20446;-76
2023/05/14 04:43:36;;;;;;;11.83;6.70;;;17.20;94.70;;;;;;5055768;28;20534;-74
2023/05/14 04:46:05;;;;;;;7.63;6.93;;;17.30;94.00;;;;;;5055007;28;20549;-75
2023/05/14 04:48:31;;;;;;;6.60;5.97;;;17.50;93.50;;;;;;5048439;28;20447;-77
2023/05/14 04:50:59;;;;;;;8.70;7.90;;;17.60;93.20;;;;;;5054713;28;20456;-74
2023/05/14 04:53:25;;;;;;;7.23;6.53;;;18.10;93.10;;;;;;5054641;28;20494;-75
2023/05/14 04:55:52;;;;;;;7.60;6.47;;;18.40;92.60;;;;;;5055325;28;20440;-75
2023/05/14 04:58:19;;;;;;;7.27;6.53;;;19.20;91.90;;;;;;5054784;28;20904;-74
2023/05/14 05:00:46;;;;;;;9.00;5.90;;;19.80;90.90;;;;;;5054420;28;20527;-77
2023/05/14 05:03:15;;;;;;;7.37;5.53;;;20.70;89.40;;;;;;5054757;28;20544;-76
2023/05/14 05:05:41;;;;;;;7.83;5.53;;;21.40;87.10;;;;;;5052009;28;20524;-77
2023/05/14 05:08:10;;;;;;;7.90;5.97;;;22.00;84.70;;;;;;5049436;28;20442;-77
2023/05/14 05:10:37;;;;;;;6.37;5.10;;;22.60;82.40;;;;;;5054446;28;20575;-75
2023/05/14 05:13:06;;;;;;;6.90;5.70;;;23.00;80.80;;;;;;5056021;28;20470;-74
2023/05/14 05:15:32;;;;;;;6.83;6.23;;;23.50;79.60;;;;;;5059464;28;20481;-76
2023/05/14 05:18:00;;;;;;;6.70;5.80;;;24.20;78.20;;;;;;5062317;28;20552;-76
2023/05/14 05:20:28;;;;;;;6.07;5.50;;;24.80;76.70;;;;;;5054750;28;20525;-77
2023/05/14 05:22:55;;;;;;;6.50;5.90;;;25.40;74.10;;;;;;5048961;28;20472;-76
2023/05/14 05:25:22;;;;;;;5.93;5.43;;;25.90;73.40;;;;;;5058064;28;20516;-78
2023/05/14 05:27:49;;;;;;;6.23;5.27;;;26.40;71.10;;;;;;5054076;28;20482;-79
2023/05/14 05:30:16;;;;;;;7.77;5.67;;;26.30;69.80;;;;;;5054604;28;20592;-75
2023/05/14 05:32:43;;;;;;;5.70;5.20;;;25.60;70.70;;;;;;5054789;28;20510;-77
2023/05/14 05:35:10;;;;;;;5.60;5.20;;;25.50;71.50;;;;;;5057885;28;20530;-75
2023/05/14 05:37:38;;;;;;;6.47;5.70;;;25.30;71.80;;;;;;5050982;28;20473;-74
2023/05/14 05:40:07;;;;;;;6.10;5.60;;;25.00;72.00;;;;;;5052272;28;20520;-77
2023/05/14 05:42:34;;;;;;;6.23;5.63;;;24.90;72.10;;;;;;5057194;28;20457;-76
2023/05/14 05:45:01;;;;;;;5.63;5.23;;;24.70;72.90;;;;;;5055106;28;20517;-76
2023/05/14 05:47:28;;;;;;;8.00;6.00;;;24.40;74.10;;;;;;5056518;28;20810;-77
2023/05/14 05:49:55;;;;;;;5.93;5.43;;;24.40;74.40;;;;;;5056314;28;20490;-75
2023/05/14 05:52:22;;;;;;;6.17;5.57;;;24.20;74.40;;;;;;5064818;28;20497;-76
2023/05/14 05:54:51;;;;;;;5.40;4.87;;;24.20;74.80;;;;;;5072160;28;20442;-77
2023/05/14 05:57:20;;;;;;;6.93;4.80;;;23.90;75.00;;;;;;5063167;28;20439;-80
2023/05/14 05:59:47;;;;;;;6.23;5.63;;;24.10;75.70;;;;;;5048985;28;20470;-74
2023/05/14 06:02:14;;;;;;;6.53;5.20;;;24.20;75.00;;;;;;5060945;28;20828;-77
2023/05/14 06:04:41;;;;;;;8.33;6.37;;;23.90;75.50;;;;;;5054634;28;20487;-75
2023/05/14 06:07:08;;;;;;;7.00;6.30;;;23.80;75.60;;;;;;5052818;28;21227;-75
2023/05/14 06:09:35;;;;;;;8.30;5.90;;;24.20;75.70;;;;;;5059602;28;20900;-76
2023/05/14 06:12:05;;;;;;;8.90;6.20;;;24.30;75.60;;;;;;5057118;28;20500;-77
2023/05/14 06:14:32;;;;;;;7.27;6.37;;;24.40;74.90;;;;;;5047758;28;20458;-75
2023/05/14 06:16:59;;;;;;;6.37;5.73;;;24.80;74.30;;;;;;5056574;28;20545;-75
2023/05/14 06:19:26;;;;;;;6.50;5.90;;;25.10;73.50;;;;;;5054544;28;20549;-76
2023/05/14 06:21:53;;;;;;;6.40;5.80;;;25.00;73.20;;;;;;5053140;28;20496;-75
2023/05/14 06:24:20;;;;;;;6.03;5.53;;;25.00;73.50;;;;;;5053875;28;20525;-75
2023/05/14 06:26:48;;;;;;;7.40;6.70;;;24.20;74.70;;;;;;5053463;28;20448;-76
2023/05/14 06:29:16;;;;;;;6.17;5.63;;;23.70;75.50;;;;;;5057880;28;20988;-75
2023/05/14 06:31:43;;;;;;;6.03;5.53;;;23.30;76.40;;;;;;5054279;28;20998;-75
2023/05/14 06:34:10;;;;;;;6.60;6.00;;;23.20;77.40;;;;;;5054196;28;20541;-76
2023/05/14 06:36:37;;;;;;;7.40;6.60;;;23.10;78.20;;;;;;5053643;28;20448;-77
2023/05/14 06:39:04;;;;;;;6.93;6.23;;;22.80;79.00;;;;;;5056155;28;20533;-77
2023/05/14 06:41:31;;;;;;;7.00;6.40;;;22.40;79.50;;;;;;5055238;28;20541;-76
2023/05/14 06:43:57;;;;;;;10.80;6.13;;;22.20;80.80;;;;;;5045175;28;20529;-77
2023/05/14 06:46:26;;;;;;;7.07;6.40;;;22.10;80.60;;;;;;5053433;28;20474;-75
2023/05/14 06:48:53;;;;;;;5.83;5.30;;;22.00;80.90;;;;;;5053653;28;20509;-77
2023/05/14 06:51:19;;;;;;;6.50;5.90;;;22.10;81.10;;;;;;5049879;28;20566;-79
2023/05/14 06:53:47;;;;;;;5.40;5.00;;;22.20;81.60;;;;;;5034573;28;20450;-76
2023/05/14 06:56:14;;;;;;;6.00;5.50;;;22.80;80.40;;;;;;5054306;28;20458;-76
2023/05/14 06:58:41;;;;;;;6.30;5.70;;;23.20;79.90;;;;;;5049543;28;20447;-77
2023/05/14 07:01:08;;;;;;;6.20;5.70;;;23.30;79.40;;;;;;5051598;28;20453;-78
2023/05/14 07:03:37;;;;;;;6.90;6.30;;;23.20;79.00;;;;;;5053246;28;20474;-78
2023/05/14 07:06:05;;;;;;;7.00;6.40;;;23.40;79.10;;;;;;5049358;28;20486;-80
2023/05/14 07:08:32;;;;;;;6.60;5.97;;;23.30;79.70;;;;;;5047743;28;20464;-76
2023/05/14 07:10:59;;;;;;;7.67;5.63;;;23.30;79.70;;;;;;5052582;28;20474;-76
2023/05/14 07:13:27;;;;;;;6.30;5.20;;;23.00;79.50;;;;;;5052594;28;21039;-75
2023/05/14 07:15:55;;;;;;;6.43;5.63;;;23.00;80.20;;;;;;5039826;28;20457;-80
2023/05/14 07:18:23;;;;;;;5.80;5.30;;;23.10;79.80;;;;;;5044981;28;20919;-76
2023/05/14 07:20:51;;;;;;;7.50;5.40;;;23.90;80.40;;;;;;5061855;28;20438;-75
2023/05/14 07:23:18;;;;;;;6.90;6.20;;;24.70;77.60;;;;;;5052092;28;20565;-78
2023/05/14 07:25:45;;;;;;;5.43;4.90;;;25.30;76.80;;;;;;5053148;28;20812;-74
2023/05/14 07:28:12;;;;;;;6.03;5.53;;;25.10;75.80;;;;;;5053875;28;20556;-78
2023/05/14 07:30:39;;;;;;;8.77;5.50;;;24.80;76.60;;;;;;5047531;28;20482;-77
2023/05/14 07:33:06;;;;;;;5.17;4.77;;;24.80;76.80;;;;;;5055097;28;20612;-76
2023/05/14 07:35:34;;;;;;;5.97;5.37;;;24.60;75.50;;;;;;5053071;28;20541;-77
2023/05/14 07:38:04;;;;;;;5.63;5.13;;;24.70;75.80;;;;;;5047004;28;20478;-77
2023/05/14 07:40:32;;;;;;;7.27;5.20;;;25.10;75.80;;;;;;5064171;28;20422;-77
2023/05/14 07:42:59;;;;;;;5.63;5.23;;;25.50;75.80;;;;;;5054044;28;20450;-76
2023/05/14 07:45:26;;;;;;;5.90;4.50;;;25.80;74.20;;;;;;5055970;28;20537;-75
2023/05/14 07:47:53;;;;;;;5.30;4.50;;;26.30;72.60;;;;;;5055372;28;20537;-77
2023/05/14 07:50:20;;;;;;;5.83;5.10;;;26.90;72.20;;;;;;5061931;28;20498;-75
2023/05/14 07:52:47;;;;;;;4.50;4.10;;;27.60;69.70;;;;;;5063199;28;20501;-77
2023/05/14 07:55:16;;;;;;;4.77;4.20;;;28.10;67.80;;;;;;5055276;28;20540;-76
2023/05/14 07:57:43;;;;;;;7.40;4.57;;;28.70;66.40;;;;;;5060914;28;20442;-74
2023/05/14 08:00:11;;;;;;;5.10;4.60;;;27.90;66.90;;;;;;5065607;28;20529;-75
2023/05/14 08:02:38;;;;;;;6.43;4.13;;;27.70;66.40;;;;;;5054246;28;20477;-73
2023/05/14 08:05:05;;;;;;;4.80;4.30;;;27.60;67.40;;;;;;5045251;28;20453;-77
2023/05/14 08:07:32;;;;;;;5.13;4.63;;;27.70;66.80;;;;;;5053131;28;20446;-79
2023/05/14 08:10:00;;;;;;;5.60;4.30;;;28.00;67.30;;;;;;5048557;28;20482;-75
2023/05/14 08:12:29;;;;;;;4.83;4.37;;;27.90;65.10;;;;;;5055905;28;20550;-75
2023/05/14 08:14:56;;;;;;;3.83;3.53;;;28.60;65.00;;;;;;5055244;28;20438;-74
2023/05/14 08:17:23;;;;;;;10.77;4.93;;;28.60;63.90;;;;;;5055938;28;20517;-79
2023/05/14 08:19:49;;;;;;;5.83;4.60;;;29.10;62.40;;;;;;5044937;28;20441;-74
2023/05/14 08:22:16;;;;;;;6.70;4.53;;;29.00;62.50;;;;;;5055798;28;20545;-75
2023/05/14 08:24:43;;;;;;;7.50;3.93;;;28.90;62.40;;;;;;5058235;28;20513;-76
2023/05/14 08:27:10;;;;;;;4.90;4.40;;;29.20;62.20;;;;;;5040572;28;20812;-75
2023/05/14 08:29:38;;;;;;;4.70;4.30;;;28.90;62.80;;;;;;5057808;28;20739;-76
2023/05/14 08:32:05;;;;;;;4.47;4.07;;;28.70;62.50;;;;;;5059649;28;20474;-74
2023/05/14 08:34:32;;;;;;;4.77;4.37;;;28.30;63.10;;;;;;5056181;28;20441;-78
2023/05/14 08:36:59;;;;;;;5.30;4.70;;;28.40;63.50;;;;;;5057445;28;20492;-76
2023/05/14 08:39:26;;;;;;;4.00;3.70;;;28.80;63.80;;;;;;5058385;28;20470;-75
2023/05/14 08:41:54;;;;;;;5.60;4.57;;;29.10;62.80;;;;;;5064679;28;20477;-77
2023/05/14 08:44:31;;;;;;;5.83;3.97;;;29.50;62.10;;;;;;5054059;28;20443;-73
2023/05/14 08:47:00;;;;;;;4.90;4.50;;;30.70;60.80;;;;;;5040779;28;20465;-76
2023/05/14 08:49:39;;;;;;;4.33;3.93;;;31.70;57.70;;;;;;5058390;28;20454;-75
2023/05/14 08:52:07;;;;;;;4.00;3.60;;;31.20;57.40;;;;;;5029494;28;20465;-75
2023/05/14 08:54:35;;;;;;;5.10;4.10;;;31.50;56.50;;;;;;5054187;28;20458;-76
2023/05/14 08:57:03;;;;;;;3.90;3.60;;;30.50;55.90;;;;;;5047325;28;20820;-77
2023/05/14 08:59:30;;;;;;;5.17;4.63;;;31.00;56.40;;;;;;5052252;28;20536;-73
2023/05/14 09:02:01;;;;;;;5.03;4.53;;;30.90;55.90;;;;;;5051822;28;20490;-74
2023/05/14 09:04:29;;;;;;;4.57;4.17;;;30.50;54.50;;;;;;5049424;28;20877;-73
2023/05/14 09:06:56;;;;;;;6.77;4.40;;;30.90;54.50;;;;;;5063963;28;20528;-72
2023/05/14 09:09:24;;;;;;;4.83;4.30;;;30.20;54.80;;;;;;5044569;28;20497;-73
2023/05/14 09:11:52;;;;;;;3.43;3.13;;;30.50;54.30;;;;;;5063340;28;21002;-76
2023/05/14 09:14:19;;;;;;;5.70;4.63;;;30.60;55.00;;;;;;5052979;28;20486;-73
2023/05/14 09:16:48;;;;;;;4.77;4.37;;;29.40;55.30;;;;;;5058066;28;20517;-75
2023/05/14 09:19:17;;;;;;;4.00;3.70;;;29.20;56.70;;;;;;5057022;28;20438;-74
2023/05/14 09:21:45;;;;;;;4.67;4.27;;;29.40;56.50;;;;;;5055422;28;20484;-75
2023/05/14 09:24:19;;;;;;;4.37;3.97;;;29.20;57.20;;;;;;5056631;28;20453;-75
2023/05/14 09:26:51;;;;;;;7.33;4.33;;;29.10;56.60;;;;;;5061629;28;20445;-73
2023/05/14 09:29:18;;;;;;;4.87;4.37;;;29.30;56.60;;;;;;5067676;28;20442;-75
2023/05/14 09:31:51;;;;;;;4.03;3.73;;;29.20;55.20;;;;;;5069687;28;20560;-72
2023/05/14 09:34:25;;;;;;;5.27;4.77;;;28.90;55.80;;;;;;5056771;28;20950;-73
2023/05/14 09:36:56;;;;;;;4.70;4.13;;;28.60;57.20;;;;;;5055471;28;20456;-77
2023/05/14 09:39:23;;;;;;;5.03;4.63;;;28.50;57.80;;;;;;5053578;28;20438;-77
2023/05/14 09:41:51;;;;;;;7.40;4.87;;;28.50;58.00;;;;;;5050015;28;20473;-77
2023/05/14 09:44:18;;;;;;;5.30;4.57;;;29.00;58.30;;;;;;5058258;28;20454;-78
2023/05/14 09:46:45;;;;;;;4.57;4.00;;;29.30;58.60;;;;;;5054248;28;20474;-76
2023/05/14 09:49:12;;;;;;;5.40;4.37;;;29.20;55.20;;;;;;5051023;28;20450;-78
2023/05/14 09:51:41;;;;;;;6.20;4.43;;;29.60;55.40;;;;;;5055694;28;20497;-74
2023/05/14 09:54:08;;;;;;;5.83;3.93;;;29.70;54.80;;;;;;5050282;28;20608;-73
2023/05/14 09:56:36;;;;;;;4.57;4.20;;;29.80;54.80;;;;;;5054416;28;20513;-72
2023/05/14 09:59:03;;;;;;;4.30;3.90;;;29.90;53.50;;;;;;5059797;28;20486;-75
2023/05/14 10:01:32;;;;;;;4.90;4.30;;;29.70;54.00;;;;;;5043009;28;20541;-72
2023/05/14 10:03:59;;;;;;;5.00;4.50;;;29.30;53.10;;;;;;5052015;28;20465;-72
2023/05/14 10:06:28;;;;;;;5.80;4.60;;;29.20;53.40;;;;;;5047769;28;20462;-75
2023/05/14 10:09:00;;;;;;;4.60;4.20;;;28.30;55.00;;;;;;5054851;28;20554;-72
2023/05/14 10:11:32;;;;;;;4.67;4.27;;;27.40;56.00;;;;;;5053306;28;20482;-74
2023/05/14 10:14:03;;;;;;;5.50;5.00;;;26.50;58.30;;;;;;5050278;28;20477;-76
2023/05/14 10:16:35;;;;;;;4.93;4.50;;;25.80;58.40;;;;;;5050956;28;20884;-73
2023/05/14 10:19:06;;;;;;;4.90;4.50;;;25.10;60.10;;;;;;5055089;28;20470;-75
2023/05/14 10:21:35;;;;;;;6.07;4.60;;;24.60;60.90;;;;;;5060567;28;20965;-75
2023/05/14 10:24:05;;;;;;;4.70;4.20;;;24.30;61.60;;;;;;5059128;28;20821;-77
2023/05/14 10:26:32;;;;;;;5.00;3.53;;;24.30;61.70;;;;;;5048408;28;20533;-75
2023/05/14 10:28:59;;;;;;;5.03;4.63;;;24.40;62.40;;;;;;5048244;28;20564;-75
2023/05/14 10:31:48;;;;;;;5.70;4.73;;;24.40;63.20;;;;;;5051944;28;20968;-74
2023/05/14 10:34:41;;;;;;;4.90;4.13;;;24.30;64.50;;;;;;5053219;28;20445;-75
2023/05/14 10:37:10;;;;;;;5.83;4.07;;;24.50;63.40;;;;;;5025024;28;21011;-76
2023/05/14 10:39:46;;;;;;;6.20;4.20;;;24.70;64.00;;;;;;5057281;28;20442;-77
2023/05/14 10:42:15;;;;;;;4.20;3.50;;;24.80;62.90;;;;;;5051582;28;20912;-77
2023/05/14 10:44:50;;;;;;;4.67;4.27;;;25.10;60.70;;;;;;5045436;28;20530;-74
2023/05/14 10:47:17;;;;;;;4.70;4.30;;;25.10;60.30;;;;;;5027867;28;20527;-77
2023/05/14 10:49:47;;;;;;;5.63;5.10;;;24.70;58.80;;;;;;5046646;28;20933;-76
2023/05/14 10:52:17;;;;;;;4.83;4.10;;;24.30;60.40;;;;;;5044325;28;20529;-73
2023/05/14 10:54:50;;;;;;;4.77;4.33;;;24.10;61.00;;;;;;5055630;28;20447;-74
2023/05/14 10:57:18;;;;;;;4.57;4.17;;;24.20;61.40;;;;;;5043079;28;20442;-76
2023/05/14 10:59:46;;;;;;;6.93;4.70;;;24.30;61.60;;;;;;5053375;28;20446;-77
2023/05/14 11:02:22;;;;;;;6.40;5.03;;;24.40;62.10;;;;;;5047878;28;20472;-76
2023/05/14 11:05:02;;;;;;;7.90;4.50;;;24.20;62.70;;;;;;5053930;28;20543;-76
2023/05/14 11:07:32;;;;;;;5.57;4.83;;;23.80;61.10;;;;;;5054109;28;20449;-76
2023/05/14 11:10:05;;;;;;;5.00;4.57;;;23.60;62.50;;;;;;5050601;28;20457;-75
2023/05/14 11:12:36;;;;;;;5.80;4.67;;;23.60;61.30;;;;;;5053859;28;20493;-76
2023/05/14 11:15:06;;;;;;;7.63;4.07;;;23.70;61.20;;;;;;5053973;28;20449;-76
2023/05/14 11:17:34;;;;;;;4.87;4.37;;;23.70;61.90;;;;;;5050366;28;20458;-75
2023/05/14 11:20:01;;;;;;;4.33;3.93;;;23.90;61.50;;;;;;5061908;28;20511;-74
2023/05/14 11:22:30;;;;;;;5.10;4.60;;;24.00;61.10;;;;;;5074690;28;20465;-76
2023/05/14 11:24:57;;;;;;;6.43;5.10;;;23.80;61.30;;;;;;5054921;28;20525;-74
2023/05/14 11:27:27;;;;;;;5.53;5.03;;;23.80;61.20;;;;;;5038546;28;20446;-77
2023/05/14 11:29:54;;;;;;;4.63;4.10;;;23.80;61.40;;;;;;5042506;28;20486;-78
2023/05/14 11:32:21;;;;;;;4.00;3.70;;;24.00;62.00;;;;;;5036026;28;20569;-76
2023/05/14 11:34:48;;;;;;;7.80;4.40;;;24.00;60.50;;;;;;5051252;28;20619;-78
2023/05/14 11:37:17;;;;;;;4.13;3.83;;;23.90;60.70;;;;;;5054671;28;20472;-76
2023/05/14 11:39:48;;;;;;;5.43;5.03;;;23.90;61.30;;;;;;5049854;28;20445;-76
2023/05/14 11:42:18;;;;;;;7.07;3.83;;;24.10;61.40;;;;;;5051290;28;20457;-77
2023/05/14 11:44:47;;;;;;;6.57;4.73;;;24.40;60.50;;;;;;5053962;28;20808;-78
2023/05/14 11:47:15;;;;;;;4.93;4.53;;;24.80;61.00;;;;;;5052990;28;20449;-76
2023/05/14 11:49:42;;;;;;;5.00;4.60;;;25.00;60.80;;;;;;5052084;28;20820;-77
2023/05/14 11:52:12;;;;;;;5.07;4.67;;;25.20;60.50;;;;;;5051384;28;20485;-73
2023/05/14 11:54:40;;;;;;;5.57;4.70;;;25.20;61.40;;;;;;5051809;28;20512;-73
2023/05/14 11:57:09;;;;;;;5.37;4.20;;;25.30;60.10;;;;;;5045178;28;20449;-74
2023/05/14 11:59:37;;;;;;;4.57;4.17;;;25.50;59.40;;;;;;5054636;28;21011;-76
2023/05/14 12:02:08;;;;;;;4.10;3.70;;;25.50;58.80;;;;;;5052495;28;20461;-73
2023/05/14 12:04:35;;;;;;;4.80;4.30;;;25.30;58.80;;;;;;5057984;28;20478;-74
2023/05/14 12:07:09;;;;;;;4.80;4.40;;;25.20;58.50;;;;;;5057560;28;20446;-75
2023/05/14 12:09:37;;;;;;;5.10;4.60;;;25.10;59.30;;;;;;5051860;28;20767;-75
2023/05/14 12:12:08;;;;;;;4.80;4.40;;;25.00;59.80;;;;;;5054701;28;20490;-74
2023/05/14 12:14:38;;;;;;;5.47;4.80;;;25.20;59.40;;;;;;5051513;28;20450;-72
2023/05/14 12:17:12;;;;;;;4.60;4.20;;;25.40;58.70;;;;;;5051662;28;20521;-75
2023/05/14 12:19:41;;;;;;;6.83;4.80;;;25.40;60.40;;;;;;5043896;28;20456;-77
2023/05/14 12:22:09;;;;;;;4.63;4.23;;;25.30;59.20;;;;;;5060159;28;20473;-75
2023/05/14 12:24:36;;;;;;;5.10;4.60;;;25.20;59.00;;;;;;5048659;28;20445;-75
2023/05/14 12:27:03;;;;;;;4.60;4.20;;;25.00;59.80;;;;;;5052195;28;20453;-74
2023/05/14 12:29:30;;;;;;;5.33;4.83;;;24.90;60.00;;;;;;5054826;28;20526;-73
2023/05/14 12:31:58;;;;;;;4.53;4.03;;;24.70;60.80;;;;;;5055514;28;20489;-75
2023/05/14 12:34:27;;;;;;;4.30;3.90;;;24.60;60.40;;;;;;5042095;28;20435;-75
2023/05/14 12:36:54;;;;;;;5.70;4.50;;;24.40;59.70;;;;;;5055881;28;20454;-76
2023/05/14 12:39:21;;;;;;;4.50;4.17;;;24.10;59.50;;;;;;5051209;28;20454;-74
2023/05/14 12:41:47;;;;;;;4.30;4.00;;;23.90;59.70;;;;;;5054790;28;20521;-74
2023/05/14 12:44:15;;;;;;;6.30;5.53;;;24.10;61.00;;;;;;5055319;28;20526;-74
2023/05/14 12:46:41;;;;;;;5.50;5.00;;;24.30;59.70;;;;;;5059475;28;20442;-75
2023/05/14 12:49:08;;;;;;;7.40;5.63;;;24.60;59.70;;;;;;5057737;28;20533;-75
2023/05/14 12:51:37;;;;;;;7.20;5.17;;;24.80;59.80;;;;;;5053373;28;20489;-75